createdAt,value
2022-09-12T00:00:22.771Z,99188.8
2022-09-12T00:01:24.251Z,99188.82
2022-09-12T00:02:23.068Z,99185.77
2022-09-12T00:03:22.846Z,99184.85
2022-09-12T00:04:22.861Z,99182.13
2022-09-12T00:05:22.855Z,99180.12
2022-09-12T00:06:25.257Z,99179.2
2022-09-12T00:07:22.905Z,99180.78
2022-09-12T00:08:22.914Z,99180.12
2022-09-12T00:09:23.001Z,99179.53
2022-09-12T00:10:22.913Z,99182.41
2022-09-12T00:11:22.968Z,99179.69
2022-09-12T00:12:22.952Z,99177.88
2022-09-12T00:13:22.939Z,99176.73
2022-09-12T00:14:22.990Z,99176.59
2022-09-12T00:15:23.095Z,99175.61
2022-09-12T00:16:24.663Z,99179.59
2022-09-12T00:17:23.006Z,99175.27
2022-09-12T00:18:23.120Z,99177.19
2022-09-12T00:19:23.066Z,99179.27
2022-09-12T00:20:23.092Z,99175.91
2022-09-12T00:21:23.514Z,99174.52
2022-09-12T00:22:23.075Z,99174.84
2022-09-12T00:23:23.136Z,99175.55
2022-09-12T00:24:23.164Z,99176.17
2022-09-12T00:25:23.142Z,99172.5
2022-09-12T00:26:23.167Z,99178.17
2022-09-12T00:27:23.120Z,99178.39
2022-09-12T00:28:23.185Z,99176.83
2022-09-12T00:29:23.179Z,99175.89
2022-09-12T00:30:23.209Z,99178.84
2022-09-12T00:31:25.120Z,99177.14
2022-09-12T00:32:23.219Z,99179.59
2022-09-12T00:33:23.227Z,99177.7
2022-09-12T00:34:23.238Z,99181.75
2022-09-12T00:35:23.297Z,99177.8
2022-09-12T00:36:24.952Z,99182.43
2022-09-12T00:37:23.270Z,99182.97
2022-09-12T00:38:23.255Z,99188.8
2022-09-12T00:39:23.299Z,99185.7
2022-09-12T00:40:23.331Z,99186.95
2022-09-12T00:41:27.753Z,99190.12
2022-09-12T00:42:23.940Z,99188.58
2022-09-12T00:45:28.475Z,99185.55
2022-09-12T00:47:30.367Z,99183.11
2022-09-12T00:48:33.541Z,99186.27
2022-09-12T00:50:33.080Z,99184.22
2022-09-12T00:51:34.317Z,99183.58
2022-09-12T00:52:39.802Z,99187.31
2022-09-12T00:53:36.636Z,99181.19
2022-09-12T00:54:42.698Z,99181.34
2022-09-12T00:55:45.198Z,99180.79
2022-09-12T00:56:43.743Z,99183.56
2022-09-12T00:57:48.748Z,99178.83
2022-09-12T00:58:53.823Z,99179.82
2022-09-12T00:59:57.376Z,99179.47
2022-09-12T01:00:49.341Z,99179.14
2022-09-12T01:01:50.817Z,99179.5
2022-09-12T01:02:51.328Z,99178.12
2022-09-12T01:03:49.324Z,99177.45
2022-09-12T01:04:49.125Z,99174.58
2022-09-12T01:06:02.349Z,99177.62
2022-09-12T01:06:55.865Z,99174.08
2022-09-12T01:07:54.577Z,99174.2
2022-09-12T01:08:55.279Z,99173.33
2022-09-12T01:09:54.468Z,99170.23
2022-09-12T01:10:54.578Z,99169.16
2022-09-12T01:11:55.063Z,99171.5
2022-09-12T01:12:54.087Z,99165.83
2022-09-12T01:13:54.494Z,99165.71
2022-09-12T01:14:54.128Z,99169.97
2022-09-12T01:15:54.312Z,99167.02
2022-09-12T01:16:54.082Z,99165.62
2022-09-12T01:34:43.319Z,99162.97
2022-09-12T01:40:02.919Z,99163.09
2022-09-12T01:42:12.394Z,99164.95
2022-09-12T01:43:08.181Z,99157.12
2022-09-12T01:44:13.730Z,99159
2022-09-12T01:47:11.841Z,99159.64
2022-09-12T01:48:13.839Z,99154.11
2022-09-12T01:49:17.490Z,99158.73
2022-09-12T01:50:22.555Z,99157.77
2022-09-12T01:51:18.409Z,99158.19
2022-09-12T01:54:20.769Z,99165.73
2022-09-12T01:56:22.511Z,99162.3
2022-09-12T01:57:23.028Z,99160.86
2022-09-12T01:58:22.005Z,99155.31
2022-09-12T02:00:19.706Z,99160.42
2022-09-12T02:02:28.715Z,99156.05
2022-09-12T02:03:27.806Z,99157.12
2022-09-12T02:04:31.131Z,99158.36
2022-09-12T02:05:30.170Z,99156.7
2022-09-12T02:08:34.970Z,99156.3
2022-09-12T02:10:38.403Z,99160.66
2022-09-12T02:11:37.078Z,99159.97
2022-09-12T02:12:38.959Z,99160.42
2022-09-12T02:14:42.426Z,99161.42
2022-09-12T02:16:48.643Z,99163.11
2022-09-12T02:17:47.568Z,99163.48
2022-09-12T02:18:47.167Z,99159.69
2022-09-12T02:19:47.059Z,99158.67
2022-09-12T02:20:48.872Z,99163.47
2022-09-12T02:21:49.347Z,99158.79
2022-09-12T02:22:48.001Z,99161.23
2022-09-12T02:23:48.378Z,99159.52
2022-09-12T02:24:47.927Z,99161.08
2022-09-12T02:25:48.217Z,99163.8
2022-09-12T02:27:54.102Z,99168.15
2022-09-12T02:28:50.509Z,99164.72
2022-09-12T02:29:50.453Z,99164.44
2022-09-12T02:30:55.656Z,99166.23
2022-09-12T02:31:57.301Z,99168.17
2022-09-12T02:33:01.067Z,99166.54
2022-09-12T02:39:04.600Z,99159.5
2022-09-12T02:40:04.940Z,99169.09
2022-09-12T02:41:04.638Z,99164.42
2022-09-12T02:42:04.812Z,99163.66
2022-09-12T02:43:05.482Z,99164.2
2022-09-12T02:44:05.666Z,99164.61
2022-09-12T02:45:05.149Z,99163.68
2022-09-12T02:46:07.683Z,99160.34
2022-09-12T02:49:09.416Z,99163.4
2022-09-12T02:50:08.657Z,99165.64
2022-09-12T02:51:08.272Z,99160.61
2022-09-12T02:52:07.969Z,99162.67
2022-09-12T02:53:08.484Z,99163.28
2022-09-12T02:54:08.403Z,99162.73
2022-09-12T02:55:09.112Z,99164.18
2022-09-12T02:56:10.983Z,99167.89
2022-09-12T02:58:12.897Z,99166.36
2022-09-12T02:59:11.325Z,99165.69
2022-09-12T03:00:10.092Z,99166.5
2022-09-12T03:01:19.300Z,99165.45
2022-09-12T03:08:36.425Z,99162.62
2022-09-12T03:11:45.602Z,99166.47
2022-09-12T03:20:15.792Z,99164.64
2022-09-12T03:21:04.610Z,99165.34
2022-09-12T03:23:05.292Z,99164.83
2022-09-12T03:25:16.819Z,99164.34
2022-09-12T03:26:16.172Z,99163.81
2022-09-12T03:27:16.100Z,99165
2022-09-12T03:28:17.141Z,99167.1
2022-09-12T03:29:14.471Z,99163.72
2022-09-12T03:30:13.813Z,99167.66
2022-09-12T03:31:17.594Z,99166.09
2022-09-12T03:32:14.568Z,99164.3
2022-09-12T03:33:15.200Z,99168.23
2022-09-12T03:34:14.242Z,99168.02
2022-09-12T03:35:15.240Z,99168.27
2022-09-12T03:36:22.594Z,99168.25
2022-09-12T03:37:19.280Z,99167.62
2022-09-12T03:38:19.327Z,99173.41
2022-09-12T03:39:19.285Z,99169.61
2022-09-12T03:40:19.693Z,99174.95
2022-09-12T03:41:19.321Z,99174.19
2022-09-12T03:42:19.329Z,99173.62
2022-09-12T03:43:19.498Z,99173.53
2022-09-12T03:44:19.693Z,99176.05
2022-09-12T03:45:19.459Z,99180.41
2022-09-12T03:46:19.354Z,99180.7
2022-09-12T03:47:19.450Z,99179.48
2022-09-12T03:48:19.385Z,99181.06
2022-09-12T03:49:19.393Z,99181.68
2022-09-12T03:50:19.441Z,99181.62
2022-09-12T03:51:19.436Z,99180.29
2022-09-12T03:52:19.552Z,99177.48
2022-09-12T03:53:19.469Z,99181.05
2022-09-12T03:54:19.488Z,99182.7
2022-09-12T03:55:19.512Z,99180.78
2022-09-12T03:56:19.603Z,99185.08
2022-09-12T03:57:19.585Z,99187.05
2022-09-12T03:58:19.561Z,99186.28
2022-09-12T03:59:19.585Z,99185.19
2022-09-12T04:00:20.050Z,99183.69
2022-09-12T04:01:20.025Z,99187.16
2022-09-12T04:02:19.688Z,99186
2022-09-12T04:03:19.632Z,99186.77
2022-09-12T04:04:20.026Z,99190.77
2022-09-12T04:05:19.673Z,99189.08
2022-09-12T04:06:20.749Z,99184.52
2022-09-12T04:07:19.695Z,99185.02
2022-09-12T04:08:19.714Z,99189.78
2022-09-12T04:09:19.732Z,99187.09
2022-09-12T04:10:19.751Z,99189.48
2022-09-12T04:11:20.375Z,99194.48
2022-09-12T04:12:20.092Z,99191.31
2022-09-12T04:13:19.838Z,99193.47
2022-09-12T04:14:19.782Z,99191.97
2022-09-12T04:15:19.827Z,99192.79
2022-09-12T04:16:19.859Z,99191.81
2022-09-12T04:17:20.038Z,99192.59
2022-09-12T04:18:19.916Z,99196.16
2022-09-12T04:19:19.869Z,99199.64
2022-09-12T04:20:19.915Z,99203.4
2022-09-12T04:21:20.849Z,99200.82
2022-09-12T04:22:19.903Z,99206.33
2022-09-12T04:23:20.299Z,99206.03
2022-09-12T04:24:19.982Z,99203.7
2022-09-12T04:25:19.997Z,99202.69
2022-09-12T04:26:20.185Z,99201.88
2022-09-12T04:27:20.055Z,99204.11
2022-09-12T04:28:20.115Z,99204.96
2022-09-12T04:29:20.056Z,99203.94
2022-09-12T04:30:20.042Z,99198.17
2022-09-12T04:31:20.156Z,99205.94
2022-09-12T04:32:20.222Z,99206.81
2022-09-12T04:33:20.345Z,99203.2
2022-09-12T04:34:20.179Z,99208.07
2022-09-12T04:35:20.182Z,99207.36
2022-09-12T04:36:20.332Z,99209.05
2022-09-12T04:37:20.248Z,99205.81
2022-09-12T04:38:20.225Z,99209.09
2022-09-12T04:39:20.207Z,99210.73
2022-09-12T04:40:20.336Z,99210.73
2022-09-12T04:41:22.540Z,99212.19
2022-09-12T04:42:20.249Z,99213.17
2022-09-12T04:43:20.295Z,99214.44
2022-09-12T04:44:20.365Z,99215.8
2022-09-12T04:45:20.332Z,99215.36
2022-09-12T04:46:20.433Z,99219.45
2022-09-12T04:47:20.370Z,99219.64
2022-09-12T04:48:20.369Z,99210.97
2022-09-12T04:49:20.409Z,99215.64
2022-09-12T04:50:20.408Z,99211.22
2022-09-12T04:51:25.243Z,99223.48
2022-09-12T04:52:21.945Z,99218.3
2022-09-12T04:53:21.947Z,99217.16
2022-09-12T04:54:22.044Z,99217.06
2022-09-12T04:55:22.313Z,99215.22
2022-09-12T04:56:22.621Z,99216.94
2022-09-12T04:57:21.954Z,99221.8
2022-09-12T04:58:21.964Z,99221.95
2022-09-12T04:59:22.303Z,99216.69
2022-09-12T05:00:22.069Z,99216.41
2022-09-12T05:01:22.610Z,99217.93
2022-09-12T05:02:22.233Z,99214.83
2022-09-12T05:03:22.148Z,99218.05
2022-09-12T05:04:22.069Z,99219.48
2022-09-12T05:05:22.242Z,99211.94
2022-09-12T05:06:23.005Z,99212.6
2022-09-12T05:07:22.236Z,99209.65
2022-09-12T05:08:22.249Z,99209.32
2022-09-12T05:09:22.274Z,99205.9
2022-09-12T05:10:22.296Z,99208.69
2022-09-12T05:11:26.606Z,99205.11
2022-09-12T05:12:27.547Z,99206.98
2022-09-12T05:13:27.387Z,99205.46
2022-09-12T05:14:27.118Z,99207.31
2022-09-12T05:15:27.196Z,99205.59
2022-09-12T05:16:29.457Z,99208.92
2022-09-12T05:17:29.008Z,99207.6
2022-09-12T05:18:27.459Z,99211.7
2022-09-12T05:19:27.990Z,99212.55
2022-09-12T05:20:28.105Z,99212.18
2022-09-12T05:21:27.259Z,99209.98
2022-09-12T05:22:27.241Z,99207.14
2022-09-12T05:23:27.663Z,99212.16
2022-09-12T05:24:27.236Z,99212.91
2022-09-12T05:25:27.274Z,99213.41
2022-09-12T05:26:27.633Z,99211.56
2022-09-12T05:27:27.332Z,99210.59
2022-09-12T05:28:34.712Z,99210.22
2022-09-12T05:29:31.545Z,99211.61
2022-09-12T05:30:31.457Z,99208.45
2022-09-12T05:31:31.462Z,99210.19
2022-09-12T05:32:31.666Z,99212.84
2022-09-12T05:33:32.199Z,99213.76
2022-09-12T05:34:31.490Z,99211.42
2022-09-12T05:35:31.518Z,99219.98
2022-09-12T05:36:31.704Z,99217.49
2022-09-12T05:37:31.510Z,99215.23
2022-09-12T05:38:31.915Z,99217.26
2022-09-12T05:39:31.501Z,99219.93
2022-09-12T05:40:31.841Z,99217.33
2022-09-12T05:41:32.170Z,99211.52
2022-09-12T05:42:31.571Z,99215.02
2022-09-12T05:43:34.799Z,99220.46
2022-09-12T05:44:31.625Z,99223.37
2022-09-12T05:45:31.708Z,99224.33
2022-09-12T05:46:35.402Z,99222.83
2022-09-12T05:47:32.178Z,99220.19
2022-09-12T05:48:32.076Z,99227.71
2022-09-12T05:49:32.215Z,99224.28
2022-09-12T05:50:32.065Z,99227.2
2022-09-12T05:51:33.345Z,99222.53
2022-09-12T05:52:32.190Z,99225.98
2022-09-12T05:53:32.538Z,99223.5
2022-09-12T05:54:32.131Z,99229.01
2022-09-12T05:55:32.163Z,99226.64
2022-09-12T05:56:33.398Z,99228.94
2022-09-12T05:57:32.254Z,99233.5
2022-09-12T05:58:32.506Z,99228.86
2022-09-12T05:59:32.285Z,99231.59
2022-09-12T06:00:33.636Z,99230.58
2022-09-12T06:01:33.184Z,99231.95
2022-09-12T06:02:32.458Z,99231.7
2022-09-12T06:03:32.310Z,99234.23
2022-09-12T06:04:32.293Z,99236.25
2022-09-12T06:05:32.366Z,99233.39
2022-09-12T06:06:35.501Z,99236.11
2022-09-12T06:07:32.653Z,99241.73
2022-09-12T06:08:32.874Z,99239.96
2022-09-12T06:09:32.369Z,99238
2022-09-12T06:10:32.459Z,99238.57
2022-09-12T06:11:33.449Z,99241.62
2022-09-12T06:12:32.397Z,99243.88
2022-09-12T06:13:33.519Z,99240.97
2022-09-12T06:14:32.466Z,99241.87
2022-09-12T06:15:32.543Z,99246.16
2022-09-12T06:16:33.983Z,99244.48
2022-09-12T06:17:33.479Z,99246.05
2022-09-12T06:18:32.815Z,99246.06
2022-09-12T06:19:32.644Z,99247.67
2022-09-12T06:20:32.597Z,99240.03
2022-09-12T06:21:32.912Z,99245.68
2022-09-12T06:22:32.671Z,99244.06
2022-09-12T06:23:33.164Z,99245.52
2022-09-12T06:24:32.608Z,99244.3
2022-09-12T06:25:32.632Z,99243.69
2022-09-12T06:26:32.851Z,99243.95
2022-09-12T06:27:32.651Z,99245.48
2022-09-12T06:28:34.923Z,99245.79
2022-09-12T06:29:32.833Z,99246.43
2022-09-12T06:30:32.758Z,99248.96
2022-09-12T06:31:34.634Z,99245.66
2022-09-12T06:32:32.746Z,99248.12
2022-09-12T06:33:36.572Z,99249.83
2022-09-12T06:34:33.276Z,99247.47
2022-09-12T06:35:35.799Z,99245.12
2022-09-12T06:36:34.879Z,99243.8
2022-09-12T06:37:33.302Z,99245.55
2022-09-12T06:38:33.663Z,99246.76
2022-09-12T06:39:33.328Z,99250.27
2022-09-12T06:40:33.499Z,99244.44
2022-09-12T06:41:33.503Z,99246.84
2022-09-12T06:42:33.369Z,99245.24
2022-09-12T06:43:33.895Z,99242.22
2022-09-12T06:44:33.598Z,99243.8
2022-09-12T06:45:33.410Z,99251.09
2022-09-12T06:46:33.619Z,99247.28
2022-09-12T06:47:33.466Z,99247.36
2022-09-12T06:48:33.781Z,99255.4
2022-09-12T06:49:33.501Z,99252.13
2022-09-12T06:50:33.524Z,99258.12
2022-09-12T06:51:33.647Z,99259.9
2022-09-12T06:52:33.486Z,99261.7
2022-09-12T06:53:34.033Z,99263.84
2022-09-12T06:54:33.766Z,99263.83
2022-09-12T06:55:33.545Z,99263.19
2022-09-12T06:56:33.545Z,99266.63
2022-09-12T06:57:33.563Z,99266.98
2022-09-12T06:58:34.402Z,99259.95
2022-09-12T06:59:33.622Z,99266.56
2022-09-12T07:00:33.628Z,99262.38
2022-09-12T07:01:34.743Z,99268.55
2022-09-12T07:02:33.734Z,99267.4
2022-09-12T07:03:34.162Z,99268.38
2022-09-12T07:04:33.671Z,99274.01
2022-09-12T07:05:34.000Z,99276.85
2022-09-12T07:06:38.036Z,99275.16
2022-09-12T07:07:34.674Z,99276
2022-09-12T07:08:35.287Z,99276.66
2022-09-12T07:09:34.668Z,99276
2022-09-12T07:10:34.695Z,99275.16
2022-09-12T07:11:35.944Z,99273.86
2022-09-12T07:12:34.774Z,99273.81
2022-09-12T07:13:34.727Z,99276.17
2022-09-12T07:14:34.762Z,99273.75
2022-09-12T07:15:35.294Z,99274.45
2022-09-12T07:16:35.751Z,99276.2
2022-09-12T07:17:34.969Z,99276.14
2022-09-12T07:18:35.352Z,99275.97
2022-09-12T07:19:34.866Z,99273.97
2022-09-12T07:20:34.929Z,99278.47
2022-09-12T07:21:35.184Z,99280.23
2022-09-12T07:22:34.908Z,99279.2
2022-09-12T07:23:35.131Z,99277.22
2022-09-12T07:24:34.948Z,99277.2
2022-09-12T07:25:35.089Z,99274.53
2022-09-12T07:26:34.978Z,99273.91
2022-09-12T07:27:34.933Z,99274.92
2022-09-12T07:28:35.166Z,99273.45
2022-09-12T07:29:37.655Z,99274.11
2022-09-12T07:30:36.320Z,99274.59
2022-09-12T07:31:35.144Z,99278.8
2022-09-12T07:32:35.062Z,99280.08
2022-09-12T07:33:35.676Z,99281.32
2022-09-12T07:34:35.397Z,99283.39
2022-09-12T07:35:35.095Z,99278.88
2022-09-12T07:36:35.208Z,99283.63
2022-09-12T07:37:35.292Z,99281.2
2022-09-12T07:38:35.242Z,99278.09
2022-09-12T07:39:35.166Z,99283.59
2022-09-12T07:40:35.242Z,99282.3
2022-09-12T07:41:35.284Z,99281.84
2022-09-12T07:42:35.240Z,99281.89
2022-09-12T07:43:35.334Z,99279.19
2022-09-12T07:44:35.269Z,99278.01
2022-09-12T07:45:35.501Z,99282.25
2022-09-12T07:46:35.439Z,99284.23
2022-09-12T07:47:35.453Z,99280.76
2022-09-12T07:48:35.680Z,99276.05
2022-09-12T07:49:35.472Z,99277.09
2022-09-12T07:50:35.693Z,99275.69
2022-09-12T07:51:35.504Z,99276.5
2022-09-12T07:52:35.488Z,99276.72
2022-09-12T07:53:39.506Z,99280.52
2022-09-12T07:54:36.137Z,99277.53
2022-09-12T07:55:36.397Z,99274.91
2022-09-12T07:56:39.225Z,99277.7
2022-09-12T07:57:36.182Z,99278.55
2022-09-12T07:58:36.943Z,99278.98
2022-09-12T07:59:52.178Z,99273.49
2022-09-12T08:00:39.492Z,99273.09
2022-09-12T08:01:39.576Z,99276.22
2022-09-12T08:02:39.531Z,99272.64
2022-09-12T08:03:40.270Z,99275.45
2022-09-12T08:04:39.854Z,99279.16
2022-09-12T08:05:39.609Z,99277.38
2022-09-12T08:06:39.630Z,99280.95
2022-09-12T08:07:39.616Z,99280.14
2022-09-12T08:08:40.052Z,99286.39
2022-09-12T08:09:39.632Z,99284.84
2022-09-12T08:10:39.661Z,99284.33
2022-09-12T08:11:39.728Z,99282.06
2022-09-12T08:12:39.727Z,99285.44
2022-09-12T08:13:40.794Z,99287
2022-09-12T08:14:39.755Z,99288.45
2022-09-12T08:15:39.816Z,99286.18
2022-09-12T08:16:39.779Z,99289.28
2022-09-12T08:17:39.923Z,99289.15
2022-09-12T08:18:40.254Z,99288
2022-09-12T08:19:39.784Z,99295.77
2022-09-12T08:20:39.805Z,99295.19
2022-09-12T08:21:39.809Z,99293.67
2022-09-12T08:22:39.897Z,99296.3
2022-09-12T08:23:39.849Z,99297.8
2022-09-12T08:24:42.783Z,99299.25
2022-09-12T08:25:39.878Z,99298.11
2022-09-12T08:26:39.910Z,99298.88
2022-09-12T08:27:39.930Z,99302.08
2022-09-12T08:28:40.133Z,99301.02
2022-09-12T08:29:40.564Z,99304.68
2022-09-12T08:30:40.216Z,99302.39
2022-09-12T08:31:40.156Z,99303.45
2022-09-12T08:32:40.059Z,99310.66
2022-09-12T08:33:39.993Z,99308.8
2022-09-12T08:34:40.016Z,99309.19
2022-09-12T08:35:40.090Z,99313.02
2022-09-12T08:36:40.104Z,99313.88
2022-09-12T08:37:40.199Z,99310.94
2022-09-12T08:38:41.840Z,99310.3
2022-09-12T08:39:40.256Z,99314.39
2022-09-12T08:40:46.917Z,99316.03
2022-09-12T08:41:47.430Z,99314.14
2022-09-12T08:42:52.115Z,99310.42
2022-09-12T08:45:54.865Z,99311.38
2022-09-12T08:47:51.277Z,99312.7
2022-09-12T08:48:51.832Z,99313.66
2022-09-12T08:50:52.476Z,99312.58
2022-09-12T08:51:53.127Z,99315.86
2022-09-12T08:52:55.777Z,99316.33
2022-09-12T08:53:53.357Z,99319.18
2022-09-12T08:54:52.715Z,99317.14
2022-09-12T08:55:53.271Z,99315.09
2022-09-12T08:57:53.997Z,99318.53
2022-09-12T08:58:53.603Z,99317.19
2022-09-12T08:59:53.587Z,99315.28
2022-09-12T09:01:57.652Z,99315
2022-09-12T09:11:26.724Z,99315.13
2022-09-12T09:14:31.501Z,99321.41
2022-09-12T09:15:33.795Z,99315.27
2022-09-12T09:16:36.177Z,99317.7
2022-09-12T09:17:39.890Z,99321.62
2022-09-12T09:18:37.081Z,99321.7
2022-09-12T09:19:38.834Z,99318.02
2022-09-12T09:20:49.241Z,99321.91
2022-09-12T09:21:44.698Z,99323.32
2022-09-12T09:23:49.218Z,99323.28
2022-09-12T09:24:50.455Z,99320.36
2022-09-12T09:26:50.842Z,99323.73
2022-09-12T09:29:53.246Z,99325.08
2022-09-12T09:30:50.785Z,99325.74
2022-09-12T09:31:54.921Z,99326.59
2022-09-12T09:32:53.682Z,99327.81
2022-09-12T09:33:52.333Z,99325.69
2022-09-12T09:34:51.353Z,99330.59
2022-09-12T09:43:22.829Z,99329.77
2022-09-12T09:44:19.257Z,99329.8
2022-09-12T09:45:23.451Z,99326.88
2022-09-12T09:46:19.850Z,99327.35
2022-09-12T09:47:19.661Z,99326.81
2022-09-12T09:48:22.278Z,99325.53
2022-09-12T09:49:20.863Z,99326.09
2022-09-12T09:50:19.759Z,99328.14
2022-09-12T09:51:27.910Z,99322.8
2022-09-12T09:52:26.376Z,99322.64
2022-09-12T09:53:28.912Z,99325.45
2022-09-12T09:54:27.926Z,99324.39
2022-09-12T09:55:27.848Z,99326.88
2022-09-12T09:57:39.519Z,99323.4
2022-09-12T09:58:33.325Z,99320.62
2022-09-12T09:59:32.795Z,99321.68
2022-09-12T10:00:33.016Z,99316.2
2022-09-12T10:01:31.496Z,99318.28
2022-09-12T10:02:31.235Z,99318.09
2022-09-12T10:03:37.001Z,99320.53
2022-09-12T10:04:39.231Z,99323.62
2022-09-12T10:06:38.645Z,99317.98
2022-09-12T10:07:38.149Z,99320.52
2022-09-12T10:08:38.137Z,99322.78
2022-09-12T10:09:38.407Z,99316.16
2022-09-12T10:10:38.073Z,99320.2
2022-09-12T10:11:41.525Z,99318.88
2022-09-12T10:12:42.374Z,99317.86
2022-09-12T10:13:51.672Z,99325.08
2022-09-12T10:14:43.283Z,99320.17
2022-09-12T10:15:55.176Z,99328.5
2022-09-12T10:16:51.636Z,99323.63
2022-09-12T10:17:49.380Z,99327.45
2022-09-12T10:18:49.992Z,99324.33
2022-09-12T10:20:04.583Z,99323.84
2022-09-12T10:20:49.580Z,99323.21
2022-09-12T10:21:53.395Z,99321.05
2022-09-12T10:22:49.713Z,99322.7
2022-09-12T10:24:56.726Z,99318.52
2022-09-12T10:25:55.957Z,99322.42
2022-09-12T10:26:58.583Z,99321.52
2022-09-12T10:27:56.910Z,99320.41
2022-09-12T10:28:55.699Z,99320.8
2022-09-12T10:30:58.009Z,99326.52
2022-09-12T10:31:59.695Z,99327.49
2022-09-12T10:33:04.489Z,99330.95
2022-09-12T10:34:00.853Z,99326.67
2022-09-12T10:35:02.191Z,99327.94
2022-09-12T10:36:01.408Z,99330.05
2022-09-12T10:37:08.015Z,99333.05
2022-09-12T10:38:05.757Z,99333.83
2022-09-12T10:39:05.071Z,99334.98
2022-09-12T10:40:05.882Z,99338.98
2022-09-12T10:41:06.700Z,99337.42
2022-09-12T10:42:04.912Z,99338.98
2022-09-12T10:44:08.707Z,99344.43
2022-09-12T10:47:19.992Z,99343.29
2022-09-12T10:52:23.399Z,99342.61
2022-09-12T10:53:21.252Z,99348.69
2022-09-12T10:54:21.759Z,99351.92
2022-09-12T10:55:23.382Z,99351.98
2022-09-12T10:56:21.697Z,99353.08
2022-09-12T11:00:25.018Z,99353.7
2022-09-12T11:03:40.102Z,99358.27
2022-09-12T11:11:02.643Z,99364.1
2022-09-12T11:12:10.958Z,99360.47
2022-09-12T11:19:27.573Z,99364.97
2022-09-12T11:26:44.518Z,99371.37
2022-09-12T11:33:54.977Z,99385.66
2022-09-12T11:35:57.490Z,99380.27
2022-09-12T11:39:12.549Z,99384.75
2022-09-12T11:42:21.759Z,99384.02
2022-09-12T11:46:29.369Z,99387.55
2022-09-12T11:47:26.221Z,99384
2022-09-12T11:49:36.565Z,99389.92
2022-09-12T11:50:29.640Z,99392.16
2022-09-12T11:51:32.918Z,99386.1
2022-09-12T11:52:35.155Z,99389.39
2022-09-12T11:53:36.424Z,99392.59
2022-09-12T11:54:35.951Z,99393.52
2022-09-12T11:55:43.360Z,99388.09
2022-09-12T11:56:38.062Z,99393.73
2022-09-12T11:58:36.782Z,99387.9
2022-09-12T11:59:48.441Z,99387.43
2022-09-12T12:00:43.096Z,99396.31
2022-09-12T12:01:47.677Z,99393.61
2022-09-12T12:03:45.972Z,99391.45
2022-09-12T12:04:55.786Z,99392.19
2022-09-12T12:07:53.484Z,99397.7
2022-09-12T12:08:52.377Z,99394.95
2022-09-12T12:09:52.267Z,99395.78
2022-09-12T12:10:57.216Z,99395.3
2022-09-12T12:11:56.397Z,99391.84
2022-09-12T12:12:54.849Z,99392.84
2022-09-12T12:13:56.739Z,99395.69
2022-09-12T12:14:55.706Z,99393.88
2022-09-12T12:16:00.082Z,99394.75
2022-09-12T12:16:56.950Z,99393.23
2022-09-12T12:18:08.009Z,99397.02
2022-09-12T12:19:00.741Z,99400.84
2022-09-12T12:20:06.472Z,99396.48
2022-09-12T12:22:08.794Z,99398.23
2022-09-12T12:23:06.945Z,99401.5
2022-09-12T12:24:17.572Z,99397.48
2022-09-12T12:31:22.415Z,99400.32
2022-09-12T12:32:23.013Z,99401.23
2022-09-12T12:38:35.334Z,99406.24
2022-09-12T12:40:32.776Z,99410.77
2022-09-12T12:43:38.434Z,99407.27
2022-09-12T12:45:48.510Z,99406.32
2022-09-12T12:47:47.411Z,99408.95
2022-09-12T12:50:54.158Z,99409.45
2022-09-12T12:52:58.204Z,99411.38
2022-09-12T12:53:55.800Z,99405.16
2022-09-12T12:54:57.426Z,99409.82
2022-09-12T12:55:56.176Z,99409.3
2022-09-12T12:57:58.873Z,99410.3
2022-09-12T12:58:59.263Z,99409.61
2022-09-12T13:02:03.884Z,99411.55
2022-09-12T13:04:12.561Z,99412.33
2022-09-12T13:05:20.623Z,99409.8
2022-09-12T13:07:25.193Z,99406.16
2022-09-12T13:08:29.413Z,99405.89
2022-09-12T13:10:28.021Z,99405.8
2022-09-12T13:12:30.757Z,99406.19
2022-09-12T13:17:39.565Z,99409.83
2022-09-12T13:19:40.787Z,99407.38
2022-09-12T13:22:49.095Z,99405.81
2022-09-12T13:24:52.553Z,99410.44
2022-09-12T13:25:53.863Z,99401.47
2022-09-12T13:26:52.594Z,99407.78
2022-09-12T13:32:00.417Z,99404.33
2022-09-12T13:33:03.741Z,99404.45
2022-09-12T13:34:01.638Z,99409.42
2022-09-12T13:43:39.804Z,99410.22
2022-09-12T13:44:35.126Z,99412.16
2022-09-12T13:45:34.808Z,99407.45
2022-09-12T13:46:33.753Z,99411.16
2022-09-12T13:47:35.227Z,99412.97
2022-09-12T13:48:32.174Z,99413.41
2022-09-12T13:49:33.640Z,99412.14
2022-09-12T13:51:33.056Z,99410.5
2022-09-12T13:52:37.531Z,99414.17
2022-09-12T13:54:36.903Z,99412.3
2022-09-12T13:55:39.397Z,99413.6
2022-09-12T13:57:39.208Z,99411.73
2022-09-12T13:58:37.664Z,99416.13
2022-09-12T13:59:41.482Z,99411.9
2022-09-12T14:00:37.657Z,99414.45
2022-09-12T14:01:38.940Z,99412.68
2022-09-12T14:02:39.684Z,99416.17
2022-09-12T14:03:41.601Z,99414.83
2022-09-12T14:04:38.122Z,99417.34
2022-09-12T14:05:38.427Z,99415.22
2022-09-12T14:06:45.398Z,99415.45
2022-09-12T14:08:43.881Z,99416.98
2022-09-12T14:09:45.117Z,99416.14
2022-09-12T14:10:45.311Z,99414.55
2022-09-12T14:11:43.901Z,99416.25
2022-09-12T14:12:43.788Z,99415.68
2022-09-12T14:13:43.923Z,99420.7
2022-09-12T14:14:46.683Z,99420.97
2022-09-12T14:15:45.217Z,99417.64
2022-09-12T14:16:43.920Z,99418.61
2022-09-12T14:17:48.336Z,99416.27
2022-09-12T14:18:47.160Z,99418.49
2022-09-12T14:19:44.670Z,99414.53
2022-09-12T14:20:45.081Z,99414.45
2022-09-12T14:21:45.780Z,99408.48
2022-09-12T14:22:48.193Z,99409.2
2022-09-12T14:23:48.225Z,99410.22
2022-09-12T14:24:50.356Z,99408.8
2022-09-12T14:25:47.477Z,99408.06
2022-09-12T14:26:46.961Z,99410.05
2022-09-12T14:27:48.833Z,99409.11
2022-09-12T14:28:47.216Z,99406.78
2022-09-12T14:29:47.007Z,99409.53
2022-09-12T14:32:01.031Z,99407.86
2022-09-12T14:37:06.103Z,99412.91
2022-09-12T14:38:08.349Z,99409.01
2022-09-12T14:39:07.102Z,99412.88
2022-09-12T14:40:16.380Z,99408.27
2022-09-12T14:41:09.392Z,99409.61
2022-09-12T14:42:19.145Z,99404.68
2022-09-12T14:43:19.325Z,99404.61
2022-09-12T14:44:16.485Z,99406.42
2022-09-12T14:45:17.873Z,99406.65
2022-09-12T14:46:16.877Z,99408.41
2022-09-12T14:47:19.814Z,99402.05
2022-09-12T14:48:18.344Z,99404.83
2022-09-12T14:49:18.371Z,99401.72
2022-09-12T14:50:18.248Z,99403.85
2022-09-12T14:51:21.041Z,99402.69
2022-09-12T14:52:25.446Z,99402.18
2022-09-12T14:53:30.795Z,99403.39
2022-09-12T14:55:31.066Z,99406
2022-09-12T14:56:38.076Z,99404.91
2022-09-12T14:57:39.481Z,99403.86
2022-09-12T14:58:31.217Z,99404.84
2022-09-12T14:59:38.287Z,99402.3
2022-09-12T15:00:35.004Z,99402.22
2022-09-12T15:01:35.040Z,99405.16
2022-09-12T15:02:35.039Z,99403.91
2022-09-12T15:03:36.465Z,99403.3
2022-09-12T15:04:45.029Z,99401.92
2022-09-12T15:05:48.034Z,99402.95
2022-09-12T15:06:39.702Z,99402.92
2022-09-12T15:07:44.399Z,99408.78
2022-09-12T15:08:41.831Z,99402.27
2022-09-12T15:09:46.446Z,99410.67
2022-09-12T15:10:44.205Z,99411.78
2022-09-12T15:11:44.043Z,99412.35
2022-09-12T15:12:44.094Z,99407.27
2022-09-12T15:13:44.119Z,99411.52
2022-09-12T15:14:44.303Z,99411.97
2022-09-12T15:15:51.700Z,99411.55
2022-09-12T15:16:48.414Z,99414.23
2022-09-12T15:17:51.441Z,99405.34
2022-09-12T15:18:48.488Z,99409.12
2022-09-12T15:19:48.470Z,99407.62
2022-09-12T15:20:50.607Z,99413.58